Forecasts are only available for sites displaying the forecast symbol.

Some water levels are actually in metres AHD (Australian Height Datum), click individual sites for more details.

Scroll for more >

River gauges, storages, and weirs in the Murray–Darling Basin

Type Locationsort descending River Water level Flow Volume Release Water temp Salinity Rainfall
River Gauge Albury (Union Bridge) Murray 2.07 m 26/01/2021 7:30 Not measured Not measured Not measured 20.2°C 26/01/2021 7:30 58.1 μS/cm 26/01/2021 7:30 Not measured Full data
River Gauge Balranald Murrumbidgee 1.4 m 26/01/2021 7:45 988 ML/Day 26/01/2021 7:45 Not measured Not measured 26.8°C 26/01/2021 7:45 108.5 μS/cm 26/01/2021 7:45 Not measured Full data
River Gauge Bandiana Kiewa 0.94 m 26/01/2021 7:45 409 ML/Day 26/01/2021 7:45 Not measured Not measured 24.7°C 26/01/2021 7:45 40.0 μS/cm 26/01/2021 7:45 Not measured Full data
River Gauge Barmah Choke Murray 2.5 m 26/01/2021 7:45 7409 ML/Day 26/01/2021 7:45 Not measured Not measured Not measured Not measured Not measured Full data
River Gauge Biggara Murray 0.37 m 26/01/2021 7:15 357 ML/Day 26/01/2021 7:15 Not measured Not measured 22.5°C 26/01/2021 7:30 48.0 μS/cm 26/01/2021 7:30 0.00 mm 24/01/2021 9:00 Full data
River Gauge Bringenbrong Bridge Murray 1.82 m 26/01/2021 7:45 5897 ML/Day 26/01/2021 7:45 Not measured Not measured Not measured Not measured Not measured Full data
River Gauge Burtundy Darling 0.75 m 26/01/2021 7:15 216 ML/Day 26/01/2021 7:15 Not measured Not measured 26.4°C 26/01/2021 7:15 448.5 μS/cm 26/01/2021 7:15 Not measured Full data
River Gauge Colemans Mitta 1.05 m 26/01/2021 6:45 354 ML/Day 26/01/2021 6:45 Not measured Not measured 20.7°C 19/01/2021 13:45 47.6 μS/cm 19/01/2021 13:45 Not measured Full data
River Gauge Colignan Murray 1.88 m 26/01/2021 7:45 6414 ML/Day 26/01/2021 7:45 Not measured Not measured 26.7°C 26/01/2021 7:45 84.5 μS/cm 26/01/2021 7:45 Not measured Full data
River Gauge Corowa Murray 3.19 m 26/01/2021 7:30 16089 ML/Day 26/01/2021 7:30 Not measured Not measured 22.8°C 26/01/2021 7:30 57.0 μS/cm 26/01/2021 7:30 Not measured Full data
Storage Dartmouth Dam Mitta 460.41 m 26/01/2021 7:45 Not measured 2394 GL 26/01/2021 7:45 Not measured Not measured Not measured Not measured Full data
River Gauge Doctors Point Murray 3.02 m 26/01/2021 7:45 15509 ML/Day 26/01/2021 7:45 Not measured Not measured 19.9°C 26/01/2021 7:45 57.9 μS/cm 26/01/2021 7:45 Not measured Full data
River Gauge Echuca Wharf Murray 86.97 m 25/01/2021 7:45 Not measured Not measured Not measured Not measured Not measured Not measured Full data
River Gauge Edward Escape Wakool 1.26 m 26/01/2021 6:45 2422 ML/Day 26/01/2021 6:45 Not measured Not measured 25.0°C 26/01/2021 6:45 63.9 μS/cm 26/01/2021 6:45 Not measured Full data
River Gauge Edward River Offtake Murray 2.43 m 26/01/2021 8:00 1610 ML/Day 26/01/2021 8:00 Not measured Not measured 26.6°C 26/01/2021 6:45 64.0 μS/cm 26/01/2021 6:45 Not measured Full data
Weirs Euston Weir Downstream Murray 43.23 m 26/01/2021 7:45 7344 ML/Day 26/01/2021 7:45 Not measured Not measured 25.7°C 26/01/2021 7:45 86.2 μS/cm 26/01/2021 7:45 Not measured Full data
Weirs Euston Weir Upstream Murray 47.62 m 26/01/2021 8:30 Not measured 37 GL 25/01/2021 7:45 Not measured Not measured Not measured 145.9 mm 5/03/2020 9:00 Full data
River Gauge Flow to South Australia Murray Not measured Not measured Not measured 9121.4 ML/d25/01/2021 7:45 Not measured Not measured Not measured Full data
River Gauge Frenchman Creek Murray 27.2 m 25/01/2021 7:45 Not measured Not measured 3665.1 ML/d25/01/2021 7:45 Not measured Not measured Not measured Full data
River Gauge Gulpa Creek Offtake Murray 2.65 m 26/01/2021 6:45 365 ML/Day 26/01/2021 6:45 Not measured Not measured Not measured Not measured Not measured Full data
River Gauge Hinnomunjie Mitta 0.5 m 26/01/2021 7:45 192 ML/Day 26/01/2021 7:45 Not measured Not measured 23.9°C 26/01/2021 7:45 36.1 μS/cm 26/01/2021 7:45 0.00 mm 24/01/2021 9:00 Full data
Storage Hume Dam Murray 184.02 m 26/01/2021 7:45 Not measured 1645 GL 26/01/2021 7:45 15515.0 ML/d25/01/2021 8:00 Not measured Not measured 0.00 mm 24/01/2021 9:00 Full data
River Gauge Jingellic Murray 2.13 m 26/01/2021 7:45 8332 ML/Day 26/01/2021 7:45 Not measured Not measured 18.6°C 26/01/2021 7:45 23.7 μS/cm 26/01/2021 7:45 0.00 mm 24/01/2021 9:00 Full data
River Gauge Kerang Loddon 0.31 m 26/01/2021 7:45 85 ML/Day 26/01/2021 7:45 Not measured Not measured 25.3°C 26/01/2021 7:45 188.3 μS/cm 26/01/2021 7:45 Not measured Full data
River Gauge Lake Albert Murray 0.75 m 26/01/2021 5:45 Not measured 271 GL 26/01/2021 5:45 Not measured Not measured Not measured Not measured Full data
River Gauge Lake Alexandrina Murray 0.75 m 26/01/2021 5:45 Not measured 1613 GL 26/01/2021 5:45 Not measured Not measured 687.5 μS/cm 26/01/2021 6:45 Not measured Full data
Storage Lake Victoria Murray 23.96 m 26/01/2021 6:45 Not measured 340 GL 26/01/2021 6:45 Not measured 20.7°C 21/01/2021 5:15 144.1 μS/cm 21/01/2021 7:45 Not measured Full data
Weirs Lock 1 Downstream Murray 0.8 m 26/01/2021 6:45 Not measured Not measured 5155.7 ML/d25/01/2021 7:45 Not measured Not measured Not measured Full data
Weirs Lock 1 Upstream Murray 3.23 m 26/01/2021 6:45 Not measured Not measured Not measured 24.9°C 26/01/2021 6:45 224.8 μS/cm 26/01/2021 6:45 Not measured Full data
Weirs Lock 2 Downstream Murray 3.42 m 26/01/2021 6:45 Not measured Not measured Not measured Not measured Not measured Not measured Full data
Weirs Lock 2 Upstream Murray 6.13 m 26/01/2021 6:45 Not measured Not measured Not measured 25.6°C 26/01/2021 6:45 218.4 μS/cm 26/01/2021 6:45 Not measured Full data
Weirs Lock 3 Downstream Murray 6.39 m 26/01/2021 6:45 Not measured Not measured Not measured Not measured Not measured Not measured Full data
Weirs Lock 3 Upstream Murray 9.86 m 26/01/2021 6:45 Not measured Not measured Not measured Not measured Not measured Not measured Full data
Weirs Lock 4 Downstream Murray 10.65 m 26/01/2021 6:45 Not measured Not measured Not measured Not measured Not measured Not measured Full data
Weirs Lock 4 Upstream Murray 13.21 m 26/01/2021 6:45 Not measured Not measured Not measured Not measured Not measured Not measured Full data
Weirs Lock 5 Downstream Murray 13.46 m 26/01/2021 6:45 Not measured Not measured Not measured Not measured Not measured Not measured Full data
Weirs Lock 5 Upstream Murray 16.34 m 26/01/2021 6:45 Not measured Not measured Not measured 25.7°C 26/01/2021 6:45 175.0 μS/cm 26/01/2021 6:45 Not measured Full data
Weirs Lock 6 Downstream Murray 16.57 m 26/01/2021 6:45 Not measured Not measured Not measured Not measured Not measured Not measured Full data
Weirs Lock 6 Upstream Murray 19.27 m 26/01/2021 6:45 Not measured Not measured Not measured 25.9°C 26/01/2021 6:45 154.1 μS/cm 26/01/2021 6:45 Not measured Full data
Weirs Lock 7 Downstream Murray 20.82 m 26/01/2021 6:45 Not measured Not measured Not measured Not measured Not measured Not measured Full data
Weirs Lock 7 Upstream Murray 21.57 m 26/01/2021 6:45 Not measured Not measured Not measured 26.3°C 26/01/2021 6:45 131.4 μS/cm 26/01/2021 6:45 Not measured Full data
Weirs Lock 8 Upstream Murray 24.09 m 26/01/2021 4:45 Not measured Not measured Not measured 26.1°C 26/01/2021 4:45 131.1 μS/cm 26/01/2021 4:45 Not measured Full data
Weirs Lock 9 Downstream Murray 24.08 m 26/01/2021 6:45 Not measured Not measured Not measured Not measured Not measured Not measured Full data
Weirs Lock 9 Upstream Murray 27.33 m 26/01/2021 6:45 Not measured Not measured Not measured 26.2°C 26/01/2021 6:45 130.3 μS/cm 26/01/2021 6:45 Not measured Full data
River Gauge McCoy Bridge Goulburn 1.56 m 26/01/2021 7:45 1119 ML/Day 26/01/2021 7:45 Not measured Not measured 26.0°C 26/01/2021 7:45 59.5 μS/cm 26/01/2021 7:45 Not measured Full data
Storage Menindee Lakes Darling Not measured Not measured 327 GL 25/01/2021 7:45 Not measured Not measured Not measured Not measured Full data
Weirs Mildura Weir downstream Murray 30.89 m 26/01/2021 7:45 Not measured Not measured Not measured 26.4°C 26/01/2021 7:45 232.2 μS/cm 26/01/2021 7:45 Not measured Full data
River Gauge Morgan Downstream Murray Not measured Not measured Not measured 4701.6 ML/d26/01/2021 6:45 Not measured 215.1 μS/cm 26/01/2021 6:45 Not measured Full data
River Gauge Mulwala Canal Murray Not measured Not measured Not measured 4058.6 ML/d26/01/2021 8:30 Not measured Not measured Not measured Full data
River Gauge Mundoo Barrage Murray 0.72 m 25/01/2021 7:45 Not measured Not measured Not measured Not measured Not measured Not measured Full data
River Gauge Murray Bridge Murray 0.75 m 26/01/2021 6:45 Not measured Not measured Not measured 23.1°C 26/01/2021 6:45 232.7 μS/cm 26/01/2021 6:45 Not measured Full data
River Gauge Peechelba Ovens 126.16 m 26/01/2021 7:45 222 ML/Day 26/01/2021 7:45 Not measured Not measured 26.0°C 26/01/2021 7:45 77.5 μS/cm 26/01/2021 7:45 Not measured Full data
River Gauge Pinegrove Murray 1.09 m 26/01/2021 7:45 258 ML/Day 26/01/2021 7:45 Not measured Not measured 24.0°C 26/01/2021 7:45 12.4 μS/cm 26/01/2021 7:45 0.00 mm 24/01/2021 9:00 Full data
River Gauge Redcliffs Murray Not measured Not measured Not measured Not measured Not measured 106.4 μS/cm 25/01/2021 7:45 Not measured Full data
River Gauge Rochester Campaspe 1.78 m 26/01/2021 7:45 129 ML/Day 26/01/2021 7:45 Not measured Not measured 24.7°C 26/01/2021 7:45 656.6 μS/cm 26/01/2021 7:45 0.00 mm 24/01/2021 9:00 Full data
River Gauge Rufus River Murray 21.79 m 25/01/2021 7:45 Not measured Not measured 7690.5 ML/d25/01/2021 7:45 Not measured 192.0 μS/cm 26/01/2021 6:45 Not measured Full data
Weirs Steven's Weir Downstream Edward 2.4 m 26/01/2021 6:45 2634 ML/Day 26/01/2021 6:45 Not measured Not measured 25.8°C 26/01/2021 6:45 61.5 μS/cm 26/01/2021 6:45 Not measured Full data
Weirs Steven's Weir Upstream Edward 4.6 m 26/01/2021 8:00 Not measured Not measured Not measured Not measured Not measured Not measured Full data
River Gauge Stoney Crossing Murray 1.49 m 26/01/2021 6:45 631 ML/Day 26/01/2021 6:45 Not measured 601.8 ML/d25/01/2021 7:45 26.4°C 26/01/2021 6:45 158.8 μS/cm 26/01/2021 6:45 Not measured Full data
River Gauge Swan Hill Murray 1.29 m 26/01/2021 7:45 6584 ML/Day 26/01/2021 7:45 Not measured Not measured 26.0°C 26/01/2021 7:45 120.2 μS/cm 26/01/2021 7:45 Not measured Full data
River Gauge Tallandoon Mitta 1.41 m 26/01/2021 7:45 572 ML/Day 26/01/2021 7:45 Not measured Not measured 23.8°C 26/01/2021 7:45 56.1 μS/cm 26/01/2021 7:45 Not measured Full data
River Gauge Tauwitchere Barrage Murray 0.67 m 26/01/2021 6:45 Not measured Not measured Not measured Not measured Not measured Not measured Full data
River Gauge Tocumwal Murray 2.14 m 26/01/2021 7:45 9530 ML/Day 26/01/2021 7:45 Not measured Not measured 25.1°C 26/01/2021 7:45 75.3 μS/cm 26/01/2021 7:45 Not measured Full data
River Gauge Torrumbarry Headworks Murray 84.71 m 26/01/2021 7:45 Not measured Not measured 1353.5 ML/d26/01/2021 7:45 Not measured Not measured Not measured Full data
Weirs Torrumbarry Weir Downstream Murray 2.33 m 26/01/2021 7:45 6733 ML/Day 26/01/2021 7:45 Not measured Not measured 26.0°C 26/01/2021 7:45 -16.9 μS/cm 26/01/2021 7:45 Not measured Full data
Weirs Torrumbarry Weir Upstream Murray 86.05 m 26/01/2021 4:45 Not measured 37 GL 25/01/2021 7:45 Not measured 25.4°C 25/01/2021 7:45 -18.5 μS/cm 26/01/2021 3:45 0.00 mm 23/01/2021 9:00 Full data
River Gauge Wakool Canal Wakool 0.68 m 26/01/2021 6:45 Not measured Not measured 852.3 ML/d26/01/2021 8:30 Not measured Not measured Not measured Full data
River Gauge Wakool Junction Murray 2.99 m 26/01/2021 7:45 8073 ML/Day 26/01/2021 7:45 Not measured Not measured 26.5°C 26/01/2021 7:45 94.4 μS/cm 26/01/2021 7:45 Not measured Full data
River Gauge Weir 32 Upstream Darling 1.45 m 26/01/2021 7:45 367 ML/Day 26/01/2021 7:45 Not measured Not measured 25.4°C 26/01/2021 7:45 367.8 μS/cm 26/01/2021 7:45 Not measured Full data
Weirs Wentworth Weir Murray 27.56 m 26/01/2021 8:30 Not measured Not measured 5285.7 ML/d26/01/2021 8:30 Not measured 109.0 μS/cm 25/01/2021 7:45 Not measured Full data
River Gauge Wilcania Darling -0.27 m 26/01/2021 6:45 0.00 ML/Day 26/01/2021 6:45 Not measured Not measured 25.5°C 8/12/2020 14:15 0.00 μS/cm 8/12/2020 14:15 Not measured Full data
River Gauge Yarrawonga Main Channel Murray 123.56 m 26/01/2021 7:45 Not measured Not measured 899.3 ML/d26/01/2021 7:45 Not measured Not measured Not measured Full data
Weirs Yarrawonga Weir Downstream Murray 1.56 m 26/01/2021 7:30 9550 ML/Day 26/01/2021 7:30 Not measured Not measured 25.2°C 26/01/2021 7:30 68.2 μS/cm 26/01/2021 7:30 Not measured Full data
Weirs Yarrawonga Weir Upstream Murray 124.84 m 26/01/2021 8:30 Not measured Not measured Not measured Not measured Not measured 6.4 mm 25/01/2021 9:00 Full data